Collinston, Louisiana
Current Conditions -  °F | °C
As of 6:15 AM on Tuesday 27 Jan 2015 (Local Time) from KBQP Reporting Station
Clear Clear  
Wind Chill: 41°   Ceiling: Unl
Heat Index: 41°   Visibility: 10mi
Dew Point: 36°   Wind: 3mph
Humidity: 82%   Direction: 320°NW
Pressure: 30.07"   Gusts: NA
Location:  32.69°N, 91.87°W
Report Text: KBQP 271215Z AUTO 32003KT 10SM CLR 05/02 A3007 RMK AO2 T00500021
Loading
Personal Weather Stations






























Interactive Weather Map New forecast layout! Learn more

10-Day Weather Forecast

Advertisements
Track Severe Weather on mobile